Time;durP1;ratioP1;P1;durP2;ratioP2;P2;SDS_P1;SDS_P2;PMS_P1;PMS_P2;Temp;Humidity;BMP_temperature;BMP_pressure;BME280_temperature;BME280_humidity;BME280_pressure;Samples;Min_cycle;Max_cycle;Signal;HPM_P1;HPM_P2
2022/01/25 00:27:04;;;;;;;18.08;8.73;;;7.50;92.60;;;;;;5068457;28;20032;-67
2022/01/25 00:32:06;;;;;;;16.33;8.40;;;7.50;92.70;;;;;;5066301;28;20036;-64
2022/01/25 00:34:32;;;;;;;19.20;9.82;;;7.50;92.60;;;;;;5066722;28;20036;-63
2022/01/25 00:36:58;;;;;;;17.35;9.45;;;7.50;92.60;;;;;;5067882;28;20471;-64
2022/01/25 00:39:24;;;;;;;15.48;8.65;;;7.50;92.70;;;;;;5071714;28;20032;-67
2022/01/25 00:41:50;;;;;;;15.27;8.35;;;7.50;92.70;;;;;;5069078;28;20032;-64
2022/01/25 00:44:17;;;;;;;16.48;9.15;;;7.50;92.80;;;;;;5066443;28;20024;-65
2022/01/25 00:46:43;;;;;;;18.75;9.57;;;7.50;92.80;;;;;;5070523;28;20033;-65
2022/01/25 00:49:11;;;;;;;17.45;8.93;;;7.40;92.80;;;;;;5068481;28;20035;-64
2022/01/25 00:51:58;;;;;;;14.32;8.75;;;7.50;92.80;;;;;;5070981;28;20036;-65
2022/01/25 00:56:50;;;;;;;18.65;9.85;;;7.40;92.90;;;;;;5071165;28;20028;-64
2022/01/25 00:59:22;;;;;;;18.95;9.70;;;7.50;92.90;;;;;;5072084;28;20029;-64
2022/01/25 01:01:50;;;;;;;18.08;9.20;;;7.40;92.80;;;;;;5073608;28;20652;-64
2022/01/25 01:04:17;;;;;;;16.70;9.60;;;7.40;92.80;;;;;;5069289;28;20123;-63
2022/01/25 01:06:45;;;;;;;18.63;9.75;;;7.40;92.80;;;;;;5074174;28;20124;-67
2022/01/25 01:09:12;;;;;;;18.00;8.80;;;7.40;92.80;;;;;;5075561;28;20109;-67
2022/01/25 01:11:47;;;;;;;17.10;9.70;;;7.40;92.90;;;;;;5075325;28;20034;-67
2022/01/25 01:17:37;;;;;;;20.88;11.02;;;7.40;92.80;;;;;;5071819;28;20719;-67
2022/01/25 01:43:59;;;;;;;17.60;9.65;;;7.30;92.80;;;;;;5072791;28;20024;-65
2022/01/25 01:46:35;;;;;;;20.17;10.60;;;7.40;92.90;;;;;;5070273;28;20029;-66
2022/01/25 01:49:03;;;;;;;;;;;7.40;92.90;;;;;;5073394;28;20023;-66
2022/01/25 01:51:34;;;;;;;19.50;9.60;;;7.30;92.80;;;;;;5074615;28;19958;-66
2022/01/25 01:54:06;;;;;;;19.42;10.13;;;7.30;92.90;;;;;;5073848;28;20514;-67
2022/01/25 01:56:33;;;;;;;21.60;10.05;;;7.30;92.90;;;;;;5072551;28;20089;-67
2022/01/25 01:59:02;;;;;;;24.05;10.45;;;7.30;92.80;;;;;;5073907;28;20790;-66
2022/01/25 02:01:30;;;;;;;17.60;10.07;;;7.30;92.90;;;;;;5071810;28;20050;-66
2022/01/25 02:04:00;;;;;;;19.20;9.85;;;7.30;92.90;;;;;;5072517;28;20028;-66
2022/01/25 02:06:26;;;;;;;23.35;10.75;;;7.30;92.90;;;;;;5068390;28;20028;-68
2022/01/25 02:08:52;;;;;;;21.50;10.35;;;7.30;92.80;;;;;;5070554;28;20480;-66
2022/01/25 02:11:18;;;;;;;18.58;10.23;;;7.30;92.80;;;;;;5071992;28;20070;-65
2022/01/25 02:13:45;;;;;;;18.13;10.20;;;7.30;92.90;;;;;;5071013;28;20077;-65
2022/01/25 02:16:20;;;;;;;20.58;10.23;;;7.30;92.90;;;;;;5070553;28;20083;-65
2022/01/25 02:24:30;;;;;;;20.90;9.23;;;7.30;92.50;;;;;;5037486;28;20052;-66
2022/01/25 02:26:57;;;;;;;19.10;9.90;;;7.20;92.70;;;;;;5073160;28;20081;-66
2022/01/25 02:29:24;;;;;;;18.38;9.35;;;7.20;92.70;;;;;;5071222;28;20111;-67
2022/01/25 02:31:53;;;;;;;22.08;11.20;;;7.20;92.80;;;;;;5072421;28;20131;-65
2022/01/25 02:34:19;;;;;;;20.13;10.52;;;7.20;92.70;;;;;;5072169;28;20127;-67
2022/01/25 02:36:45;;;;;;;22.17;11.25;;;7.20;92.70;;;;;;5070475;28;20844;-67
2022/01/25 02:39:11;;;;;;;21.58;11.20;;;7.20;92.60;;;;;;5068610;28;20031;-65
2022/01/25 02:41:37;;;;;;;23.08;12.00;;;7.10;92.70;;;;;;5069246;28;20594;-65
2022/01/25 02:44:07;;;;;;;23.08;10.82;;;7.20;92.50;;;;;;5070137;28;20120;-65
2022/01/25 02:49:02;;;;;;;23.00;12.07;;;7.10;92.40;;;;;;5075683;28;20020;-67
2022/01/25 02:51:31;;;;;;;21.40;11.05;;;7.10;92.30;;;;;;5067001;28;20661;-66
2022/01/25 02:53:58;;;;;;;22.40;11.25;;;7.10;92.30;;;;;;5072514;28;20035;-65
2022/01/25 02:56:27;;;;;;;20.58;10.82;;;7.10;92.20;;;;;;5071534;28;20027;-65
2022/01/25 02:58:53;;;;;;;21.90;11.45;;;7.00;92.10;;;;;;5070904;28;20024;-65
2022/01/25 03:01:21;;;;;;;23.25;11.15;;;7.10;92.30;;;;;;5070893;28;20034;-65
2022/01/25 03:03:47;;;;;;;25.42;12.32;;;7.00;92.40;;;;;;5077481;28;20102;-67
2022/01/25 03:06:18;;;;;;;24.17;11.63;;;7.10;92.40;;;;;;5069795;28;20024;-65
2022/01/25 03:08:44;;;;;;;24.00;12.75;;;7.10;92.40;;;;;;5066700;28;20028;-67
2022/01/25 03:11:10;;;;;;;24.02;11.13;;;7.10;92.30;;;;;;5070119;28;20059;-70
2022/01/25 03:13:48;;;;;;;24.88;11.65;;;7.10;92.20;;;;;;5068966;28;20029;-65
2022/01/25 03:16:31;;;;;;;27.27;12.15;;;7.10;91.90;;;;;;5074362;28;20043;-64
2022/01/25 03:19:01;;;;;;;25.27;11.77;;;7.10;92.00;;;;;;5065303;28;20048;-65
2022/01/25 03:23:53;;;;;;;28.48;13.88;;;7.00;92.00;;;;;;5071987;28;20278;-66
2022/01/25 03:26:20;;;;;;;30.70;12.95;;;7.00;91.90;;;;;;5069728;28;20035;-65
2022/01/25 03:28:46;;;;;;;30.75;12.65;;;6.90;91.90;;;;;;5071871;28;20135;-65
2022/01/25 03:31:12;;;;;;;28.17;13.55;;;6.90;92.00;;;;;;5071975;28;20051;-65
2022/01/25 03:33:38;;;;;;;27.67;12.93;;;6.90;91.90;;;;;;5071535;28;20024;-66
2022/01/25 03:36:07;;;;;;;32.08;12.55;;;6.80;91.90;;;;;;5068978;28;20096;-66
2022/01/25 03:38:34;;;;;;;27.67;12.85;;;6.80;91.90;;;;;;5070626;28;20028;-66
2022/01/25 03:40:59;;;;;;;27.75;12.45;;;6.80;91.90;;;;;;5070574;28;20024;-66
2022/01/25 03:43:25;;;;;;;31.98;13.13;;;6.80;92.10;;;;;;5070277;28;20407;-65
2022/01/25 03:46:05;;;;;;;26.20;12.02;;;6.80;92.10;;;;;;5068692;28;20120;-66
2022/01/25 03:50:57;;;;;;;28.35;12.95;;;6.80;92.10;;;;;;5070274;28;20753;-67
2022/01/25 03:53:22;;;;;;;31.25;13.48;;;6.70;91.90;;;;;;5070778;28;20366;-68
2022/01/25 03:55:48;;;;;;;33.65;13.98;;;6.70;91.90;;;;;;5078742;28;20514;-68
2022/01/25 03:58:15;;;;;;;30.48;13.40;;;6.70;91.80;;;;;;5073740;28;20024;-68
2022/01/25 04:00:42;;;;;;;33.67;14.27;;;6.60;92.20;;;;;;5072755;28;20403;-68
2022/01/25 04:03:17;;;;;;;34.75;14.90;;;6.60;92.10;;;;;;5068515;28;20028;-68
2022/01/25 04:08:10;;;;;;;30.75;12.85;;;6.60;92.40;;;;;;5071138;28;20123;-68
2022/01/25 04:10:36;;;;;;;33.80;13.60;;;6.60;92.40;;;;;;5072051;28;20032;-68
2022/01/25 04:13:04;;;;;;;31.38;13.18;;;6.60;92.30;;;;;;5070119;28;20077;-65
2022/01/25 04:15:29;;;;;;;34.60;13.68;;;6.60;92.30;;;;;;5067577;28;20020;-68
2022/01/25 04:18:12;;;;;;;31.77;13.65;;;6.60;92.10;;;;;;5069794;28;20067;-68
2022/01/25 04:20:39;;;;;;;35.83;14.95;;;6.60;92.20;;;;;;5069084;28;20062;-70
2022/01/25 04:25:49;;;;;;;29.10;13.88;;;6.50;92.30;;;;;;5084572;28;20058;-68
2022/01/25 04:28:14;;;;;;;30.55;13.82;;;6.50;92.30;;;;;;5071123;28;20024;-68
2022/01/25 04:30:40;;;;;;;31.88;14.27;;;6.50;92.30;;;;;;5073960;28;20036;-68
2022/01/25 04:33:18;;;;;;;35.58;15.48;;;6.50;92.30;;;;;;5070271;28;20028;-66
2022/01/25 04:49:30;;;;;;;32.35;13.30;;;6.40;92.10;;;;;;5068576;28;20533;-68
2022/01/25 04:52:09;;;;;;;34.63;14.80;;;6.40;92.10;;;;;;5066655;28;20041;-68
2022/01/25 04:54:50;;;;;;;32.10;13.40;;;6.40;92.00;;;;;;5067540;28;20647;-68
2022/01/25 05:00:01;;;;;;;35.72;15.50;;;6.30;92.10;;;;;;5069282;28;20034;-68
2022/01/25 05:05:17;;;;;;;31.60;12.82;;;6.30;92.10;;;;;;5068480;28;20071;-68
2022/01/25 05:10:15;;;;;;;36.53;14.90;;;6.20;92.00;;;;;;5067292;28;20097;-68
2022/01/25 05:12:46;;;;;;;37.28;15.05;;;6.20;92.20;;;;;;5075817;28;20036;-67
2022/01/25 05:18:07;;;;;;;32.50;13.73;;;6.20;92.20;;;;;;5036605;28;21136;-68
2022/01/25 05:23:17;;;;;;;29.83;12.60;;;6.30;91.90;;;;;;5066401;28;20047;-68
2022/01/25 05:25:42;;;;;;;33.35;13.32;;;6.30;91.90;;;;;;5068428;28;20059;-68
2022/01/25 05:28:08;;;;;;;37.45;14.52;;;6.30;92.00;;;;;;5065460;28;20112;-68
2022/01/25 05:30:38;;;;;;;37.63;14.93;;;6.30;92.00;;;;;;5067317;28;20036;-68
2022/01/25 05:33:04;;;;;;;29.92;13.70;;;6.30;92.00;;;;;;5069934;28;20125;-67
2022/01/25 05:35:31;;;;;;;33.17;13.52;;;6.30;91.90;;;;;;5066956;28;20029;-68
2022/01/25 05:37:57;;;;;;;35.10;14.50;;;6.30;92.00;;;;;;5069603;28;20560;-68
2022/01/25 05:48:21;;;;;;;36.70;14.68;;;6.30;91.70;;;;;;5073392;28;20036;-65
2022/01/25 05:50:47;;;;;;;32.05;13.50;;;6.30;91.70;;;;;;5071495;28;20633;-66
2022/01/25 05:53:12;;;;;;;36.83;14.82;;;6.30;91.80;;;;;;5070706;28;20060;-65
2022/01/25 05:55:38;;;;;;;36.53;15.95;;;6.30;91.80;;;;;;5071333;28;20396;-65
2022/01/25 05:58:04;;;;;;;32.72;13.57;;;6.30;91.80;;;;;;5072804;28;20036;-65
2022/01/25 06:00:30;;;;;;;35.47;15.15;;;6.30;91.70;;;;;;5070174;28;20028;-66
2022/01/25 06:02:56;;;;;;;35.45;14.55;;;6.30;91.90;;;;;;5075588;28;20539;-66
2022/01/25 06:05:23;;;;;;;33.05;14.65;;;6.30;91.80;;;;;;5073953;28;20029;-65
2022/01/25 06:07:52;;;;;;;30.58;13.13;;;6.30;91.60;;;;;;5072595;28;20046;-68
2022/01/25 06:10:18;;;;;;;30.88;13.80;;;6.30;91.60;;;;;;5075325;28;20050;-68
2022/01/25 06:12:45;;;;;;;32.05;13.48;;;6.30;91.70;;;;;;5077976;28;20043;-68
2022/01/25 06:15:14;;;;;;;31.85;14.00;;;6.30;91.80;;;;;;5072732;28;20055;-68
2022/01/25 06:17:40;;;;;;;38.38;15.05;;;6.30;91.80;;;;;;5076704;28;20036;-68
2022/01/25 06:20:06;;;;;;;34.33;15.18;;;6.30;91.70;;;;;;5074884;28;20367;-67
2022/01/25 06:22:32;;;;;;;28.20;12.68;;;6.30;91.80;;;;;;5073089;28;20028;-65
2022/01/25 06:24:58;;;;;;;35.08;15.70;;;6.20;91.80;;;;;;5074887;28;20043;-66
2022/01/25 06:27:24;;;;;;;34.38;15.32;;;6.30;91.80;;;;;;5072805;28;20031;-65
2022/01/25 06:29:50;;;;;;;37.10;14.35;;;6.30;91.90;;;;;;5077336;28;20521;-67
2022/01/25 06:32:18;;;;;;;30.35;13.73;;;6.30;91.80;;;;;;5077239;28;20322;-68
2022/01/25 06:34:44;;;;;;;37.63;14.95;;;6.30;91.80;;;;;;5048459;28;20119;-68
2022/01/25 06:37:13;;;;;;;37.83;15.15;;;6.30;91.80;;;;;;5075981;28;20838;-68
2022/01/25 06:39:40;;;;;;;35.10;14.77;;;6.30;91.60;;;;;;5074944;28;20057;-65
2022/01/25 06:42:07;;;;;;;36.33;13.85;;;6.30;91.60;;;;;;5075242;28;20054;-66
2022/01/25 06:44:35;;;;;;;32.50;14.23;;;6.30;91.60;;;;;;5073845;28;20619;-65
2022/01/25 06:47:01;;;;;;;34.45;13.35;;;6.30;91.80;;;;;;5072453;28;20139;-65
2022/01/25 06:49:27;;;;;;;36.80;14.15;;;6.30;91.80;;;;;;5078932;28;20039;-65
2022/01/25 06:51:52;;;;;;;39.83;15.32;;;6.30;91.70;;;;;;5072773;28;20027;-66
2022/01/25 06:54:18;;;;;;;33.13;14.60;;;6.30;91.70;;;;;;5074751;28;20039;-66
2022/01/25 06:56:44;;;;;;;34.78;15.50;;;6.30;91.80;;;;;;5078803;28;20059;-66
2022/01/25 06:59:10;;;;;;;38.88;16.58;;;6.30;91.60;;;;;;5076861;28;20032;-66
2022/01/25 07:01:36;;;;;;;39.17;15.57;;;6.30;91.60;;;;;;5074176;28;20060;-66
2022/01/25 07:04:02;;;;;;;37.60;15.52;;;6.30;91.50;;;;;;5071141;28;20024;-65
2022/01/25 07:06:27;;;;;;;36.40;14.20;;;6.30;91.40;;;;;;5074176;28;20665;-68
2022/01/25 07:08:53;;;;;;;36.65;15.25;;;6.30;91.30;;;;;;5076192;28;20041;-65
2022/01/25 07:11:19;;;;;;;35.63;14.68;;;6.30;91.30;;;;;;5078380;28;20060;-65
2022/01/25 07:13:47;;;;;;;42.22;16.92;;;6.30;91.30;;;;;;5076365;28;20070;-65
2022/01/25 07:16:13;;;;;;;37.38;15.68;;;6.30;91.40;;;;;;5070724;28;20032;-65
2022/01/25 07:18:39;;;;;;;35.38;14.73;;;6.30;91.40;;;;;;5074529;28;20032;-65
2022/01/25 07:21:05;;;;;;;34.85;14.90;;;6.30;91.30;;;;;;5072225;28;20034;-66
2022/01/25 07:23:31;;;;;;;31.45;13.90;;;6.30;91.50;;;;;;5072557;28;20036;-66
2022/01/25 07:25:57;;;;;;;36.92;15.38;;;6.30;91.40;;;;;;5071421;28;20047;-65
2022/01/25 07:28:23;;;;;;;38.47;14.80;;;6.30;91.40;;;;;;5076673;28;20050;-66
2022/01/25 07:30:49;;;;;;;35.05;15.38;;;6.30;91.40;;;;;;5073347;28;20123;-66
2022/01/25 07:33:15;;;;;;;41.35;15.63;;;6.30;91.40;;;;;;5071555;28;20103;-67
2022/01/25 07:35:41;;;;;;;36.40;14.48;;;6.40;91.30;;;;;;5074713;28;20621;-68
2022/01/25 07:38:07;;;;;;;34.78;13.98;;;6.30;91.30;;;;;;5074975;28;20034;-66
2022/01/25 07:40:35;;;;;;;34.67;15.50;;;6.30;91.40;;;;;;5069387;28;20028;-66
2022/01/25 07:43:02;;;;;;;36.53;15.00;;;6.30;91.50;;;;;;5069956;28;20061;-66
2022/01/25 07:45:34;;;;;;;35.50;14.85;;;6.30;91.50;;;;;;5053850;28;20029;-66
2022/01/25 07:48:01;;;;;;;34.78;14.05;;;6.40;91.50;;;;;;5071942;28;20032;-66
2022/01/25 07:50:27;;;;;;;36.80;15.63;;;6.40;91.50;;;;;;5071286;28;20082;-65
2022/01/25 07:52:54;;;;;;;41.38;17.70;;;6.40;91.60;;;;;;5072976;28;20135;-66
2022/01/25 07:55:20;;;;;;;48.97;19.98;;;6.40;91.60;;;;;;5071749;28;20109;-66
2022/01/25 07:57:46;;;;;;;43.80;17.75;;;6.40;91.60;;;;;;5072208;28;20049;-66
2022/01/25 08:00:13;;;;;;;41.15;17.17;;;6.40;91.50;;;;;;5074715;28;20081;-66
2022/01/25 08:02:41;;;;;;;39.63;16.23;;;6.40;91.50;;;;;;5070880;28;20035;-66
2022/01/25 08:05:07;;;;;;;36.80;15.10;;;6.40;91.50;;;;;;5070642;28;20039;-66
2022/01/25 08:07:33;;;;;;;43.92;15.98;;;6.40;91.60;;;;;;5069602;28;20035;-67
2022/01/25 08:09:59;;;;;;;37.05;16.33;;;6.40;91.50;;;;;;5076982;28;20028;-67
2022/01/25 08:12:25;;;;;;;38.83;14.82;;;6.40;91.50;;;;;;5068976;28;20742;-67
2022/01/25 08:14:53;;;;;;;38.35;15.88;;;6.40;91.50;;;;;;5061105;28;20035;-67
2022/01/25 08:17:19;;;;;;;37.15;15.55;;;6.40;91.50;;;;;;5051321;28;20039;-67
2022/01/25 08:19:45;;;;;;;40.63;14.88;;;6.40;91.50;;;;;;5074460;28;20027;-67
2022/01/25 08:22:11;;;;;;;38.95;15.65;;;6.40;91.50;;;;;;5072493;28;20353;-69
2022/01/25 08:24:37;;;;;;;33.92;14.00;;;6.40;91.50;;;;;;5076984;28;20028;-67
2022/01/25 08:27:03;;;;;;;37.20;15.98;;;6.40;91.40;;;;;;5075295;28;20027;-67
2022/01/25 08:29:28;;;;;;;39.13;16.77;;;6.50;91.50;;;;;;5075457;28;20036;-67
2022/01/25 08:31:54;;;;;;;40.28;15.63;;;6.50;91.60;;;;;;5076104;28;20443;-67
2022/01/25 08:34:20;;;;;;;39.42;16.20;;;6.50;91.60;;;;;;5071398;28;20068;-67
2022/01/25 08:36:46;;;;;;;38.70;15.35;;;6.50;91.50;;;;;;5068334;28;20033;-68
2022/01/25 08:39:12;;;;;;;36.67;14.38;;;6.50;91.50;;;;;;5053057;28;20024;-67
2022/01/25 08:41:38;;;;;;;36.10;15.20;;;6.60;91.30;;;;;;5071550;28;20024;-66
2022/01/25 08:44:04;;;;;;;41.40;16.50;;;6.60;91.40;;;;;;5073553;28;20051;-66
2022/01/25 08:46:30;;;;;;;36.47;15.32;;;6.70;91.40;;;;;;5073494;28;20430;-66
2022/01/25 08:48:55;;;;;;;43.85;16.08;;;6.80;91.30;;;;;;5073559;28;20032;-67
2022/01/25 08:51:21;;;;;;;42.60;17.25;;;6.80;91.30;;;;;;5069062;28;20036;-67
2022/01/25 08:53:48;;;;;;;39.55;17.63;;;7.00;91.10;;;;;;5077096;28;20035;-66
2022/01/25 08:56:14;;;;;;;34.75;15.38;;;7.00;90.80;;;;;;5076025;28;20111;-65
2022/01/25 08:58:40;;;;;;;37.38;15.27;;;7.10;90.60;;;;;;5070771;28;20146;-65
2022/01/25 09:01:06;;;;;;;40.53;16.10;;;7.20;90.50;;;;;;5072783;28;20075;-68
2022/01/25 09:03:32;;;;;;;40.58;15.70;;;7.30;90.50;;;;;;5073834;28;20132;-69
2022/01/25 09:05:58;;;;;;;39.05;15.27;;;7.40;90.50;;;;;;5074785;28;20727;-68
2022/01/25 09:08:27;;;;;;;39.97;16.73;;;7.40;90.40;;;;;;5074909;28;20044;-68
2022/01/25 09:10:58;;;;;;;38.03;15.20;;;7.50;90.30;;;;;;5075300;28;20032;-69
2022/01/25 09:13:24;;;;;;;42.20;17.45;;;7.50;90.10;;;;;;5073612;28;20047;-68
2022/01/25 09:15:50;;;;;;;37.08;15.40;;;7.50;90.10;;;;;;5053318;28;20051;-76
2022/01/25 09:18:17;;;;;;;36.92;15.68;;;7.70;90.10;;;;;;5072945;28;20265;-68
2022/01/25 09:20:43;;;;;;;34.28;15.07;;;7.80;90.00;;;;;;5076711;28;20153;-68
2022/01/25 09:23:12;;;;;;;38.25;15.73;;;7.80;89.60;;;;;;5079454;28;20131;-68
2022/01/25 09:25:38;;;;;;;37.42;15.23;;;7.80;88.90;;;;;;5077241;28;20041;-65
2022/01/25 09:28:04;;;;;;;36.55;15.38;;;7.80;88.80;;;;;;5057170;28;20885;-68
2022/01/25 09:30:30;;;;;;;36.83;15.55;;;7.90;88.80;;;;;;5076793;28;20032;-65
2022/01/25 09:32:57;;;;;;;40.50;16.20;;;8.00;88.80;;;;;;5075563;28;20597;-65
2022/01/25 09:35:23;;;;;;;38.42;15.90;;;8.00;88.30;;;;;;5077141;28;20036;-65
2022/01/25 09:37:49;;;;;;;35.38;15.32;;;8.10;88.10;;;;;;5073399;28;20094;-64
2022/01/25 09:40:15;;;;;;;37.10;15.57;;;8.20;87.70;;;;;;5076181;28;20036;-69
2022/01/25 09:42:40;;;;;;;34.75;14.60;;;8.40;87.70;;;;;;5078167;28;20047;-65
2022/01/25 09:45:08;;;;;;;34.30;14.77;;;8.60;86.00;;;;;;5074319;28;20166;-67
2022/01/25 09:47:36;;;;;;;37.85;15.18;;;8.70;85.60;;;;;;5070550;28;20036;-65
2022/01/25 09:50:02;;;;;;;31.52;14.10;;;8.70;85.20;;;;;;5087975;28;20047;-64
2022/01/25 09:52:28;;;;;;;30.67;14.45;;;8.70;84.90;;;;;;5075141;28;20036;-64
2022/01/25 09:54:56;;;;;;;36.92;15.25;;;8.60;85.20;;;;;;5074466;28;20028;-67
2022/01/25 09:57:24;;;;;;;33.05;14.18;;;8.50;85.50;;;;;;5077622;28;20032;-69
2022/01/25 09:59:50;;;;;;;28.23;14.38;;;8.60;86.00;;;;;;5074858;28;20073;-68
2022/01/25 10:02:47;;;;;;;31.77;14.15;;;8.70;86.80;;;;;;5074547;28;20614;-65
2022/01/25 10:05:25;;;;;;;33.45;14.60;;;8.80;85.40;;;;;;5074667;28;20119;-68
2022/01/25 10:07:57;;;;;;;32.92;13.80;;;8.80;85.10;;;;;;5070834;28;20158;-69
2022/01/25 10:10:24;;;;;;;32.28;13.07;;;8.80;84.60;;;;;;5078032;28;20123;-68
2022/01/25 10:12:49;;;;;;;27.80;13.48;;;8.80;85.50;;;;;;5073596;28;20032;-68
2022/01/25 10:15:15;;;;;;;28.75;12.38;;;8.70;85.70;;;;;;5076214;28;20063;-67
2022/01/25 10:17:43;;;;;;;27.30;12.55;;;8.60;85.90;;;;;;5072711;28;20032;-68
2022/01/25 10:20:30;;;;;;;30.20;13.60;;;8.50;86.70;;;;;;5061345;28;20275;-67
2022/01/25 10:22:59;;;;;;;28.85;12.60;;;8.60;87.50;;;;;;5073901;28;20384;-68
2022/01/25 10:25:52;;;;;;;23.00;10.68;;;8.60;86.70;;;;;;5074624;28;20032;-66
2022/01/25 10:28:26;;;;;;;27.42;11.60;;;8.50;86.70;;;;;;5068320;28;20131;-64
2022/01/25 10:30:55;;;;;;;23.65;10.63;;;8.50;86.20;;;;;;5074599;28;20029;-63
2022/01/25 10:33:33;;;;;;;26.80;11.60;;;8.40;86.10;;;;;;5079311;28;20032;-66
2022/01/25 10:36:10;;;;;;;26.08;10.43;;;8.30;86.60;;;;;;5076530;28;20702;-66
2022/01/25 10:38:36;;;;;;;21.58;9.77;;;8.30;86.90;;;;;;5066008;28;20043;-66
2022/01/25 10:41:09;;;;;;;21.70;9.68;;;8.30;87.40;;;;;;5071358;28;20191;-64
2022/01/25 10:43:37;;;;;;;22.02;10.52;;;8.30;87.00;;;;;;5075906;28;20038;-66
2022/01/25 10:46:06;;;;;;;24.25;9.70;;;8.30;86.50;;;;;;5071548;28;20115;-65
2022/01/25 10:48:33;;;;;;;20.83;9.48;;;8.30;86.90;;;;;;5072936;28;20126;-63
2022/01/25 10:51:12;;;;;;;20.10;9.07;;;8.20;86.80;;;;;;5075407;28;20035;-62
2022/01/25 10:53:38;;;;;;;21.25;10.45;;;8.20;87.30;;;;;;5045752;22;1156859;-63
2022/01/25 10:56:06;;;;;;;20.33;9.50;;;8.20;87.90;;;;;;5031559;28;20137;-63
2022/01/25 10:58:36;;;;;;;23.30;9.48;;;8.10;87.90;;;;;;5049147;28;20089;-67
2022/01/25 11:01:02;;;;;;;23.10;9.93;;;8.10;88.00;;;;;;5017660;28;20025;-63
2022/01/25 11:03:36;;;;;;;25.20;10.18;;;8.20;88.10;;;;;;5038142;28;20668;-63
2022/01/25 11:06:12;;;;;;;25.52;13.13;;;8.20;87.70;;;;;;5036813;28;20099;-66
2022/01/25 11:08:38;;;;;;;;;;;8.10;88.30;;;;;;5040486;28;20144;-65
2022/01/25 11:11:07;;;;;;;25.83;11.90;;;8.00;88.70;;;;;;5039684;28;19913;-67
2022/01/25 11:13:39;;;;;;;26.92;12.48;;;8.10;89.80;;;;;;5006153;28;20498;-67
2022/01/25 11:16:08;;;;;;;27.17;13.93;;;8.10;90.00;;;;;;5034892;28;20044;-66
2022/01/25 11:18:35;;;;;;;21.77;11.55;;;8.10;89.80;;;;;;5035450;28;20033;-66
2022/01/25 11:21:04;;;;;;;25.23;11.02;;;8.10;90.00;;;;;;5006536;28;20539;-65
2022/01/25 11:23:36;;;;;;;22.98;10.18;;;8.20;89.60;;;;;;5037418;28;20041;-65
2022/01/25 11:26:05;;;;;;;21.52;9.48;;;8.20;89.30;;;;;;5034102;28;20493;-65
2022/01/25 11:28:33;;;;;;;20.42;9.52;;;8.20;89.00;;;;;;5030987;28;20037;-68
2022/01/25 11:31:08;;;;;;;30.35;13.40;;;8.30;89.10;;;;;;5039122;23;20497;-67
2022/01/25 11:33:38;;;;;;;23.85;10.35;;;8.30;88.40;;;;;;5035257;28;20384;-66
2022/01/25 11:36:09;;;;;;;23.42;10.38;;;8.30;88.30;;;;;;5039193;28;20062;-66
2022/01/25 11:38:41;;;;;;;22.27;9.23;;;8.20;88.10;;;;;;5035866;28;20774;-65
2022/01/25 11:41:12;;;;;;;28.40;12.30;;;8.10;87.90;;;;;;5018767;28;20048;-66
2022/01/25 11:43:38;;;;;;;27.05;10.85;;;8.10;88.50;;;;;;5015670;28;20561;-66
2022/01/25 11:46:06;;;;;;;20.27;9.18;;;8.10;88.90;;;;;;5016278;28;20020;-65
2022/01/25 11:48:41;;;;;;;19.45;8.88;;;8.20;88.50;;;;;;5012354;28;20045;-65
2022/01/25 11:51:18;;;;;;;24.45;10.20;;;8.20;88.40;;;;;;5013858;28;20118;-66
2022/01/25 11:53:47;;;;;;;24.85;10.20;;;8.20;88.70;;;;;;5007476;28;20080;-67
2022/01/25 11:56:13;;;;;;;20.60;9.68;;;8.30;88.70;;;;;;5011630;28;20056;-69
2022/01/25 11:58:41;;;;;;;17.20;8.55;;;8.30;88.50;;;;;;5014895;28;20033;-68
2022/01/25 12:01:17;;;;;;;22.30;9.82;;;8.40;88.30;;;;;;5013883;28;20132;-68
2022/01/25 12:03:46;;;;;;;21.63;8.70;;;8.40;88.60;;;;;;5017979;28;20034;-68
2022/01/25 12:06:22;;;;;;;21.88;8.93;;;8.50;88.10;;;;;;5016816;28;20045;-66
2022/01/25 12:11:29;;;;;;;18.25;8.68;;;8.60;88.30;;;;;;5014302;28;20080;-68
2022/01/25 12:14:14;;;;;;;16.15;7.95;;;8.70;87.80;;;;;;5007498;28;20902;-66
2022/01/25 12:16:46;;;;;;;20.85;8.35;;;8.70;87.20;;;;;;5022045;28;20040;-66
2022/01/25 12:19:16;;;;;;;13.98;7.50;;;8.70;87.10;;;;;;5013841;28;20035;-66
2022/01/25 12:21:49;;;;;;;17.83;7.07;;;8.70;87.10;;;;;;5018609;28;20021;-66
2022/01/25 12:24:40;;;;;;;17.90;7.88;;;8.70;86.50;;;;;;5015644;28;20144;-68
2022/01/25 12:30:15;;;;;;;23.25;8.90;;;8.60;86.40;;;;;;5015244;28;20776;-66
2022/01/25 12:32:51;;;;;;;13.35;7.10;;;8.60;86.20;;;;;;5017189;28;20120;-66
2022/01/25 12:35:30;;;;;;;16.25;7.07;;;8.50;86.40;;;;;;5013475;28;20379;-66
2022/01/25 12:37:58;;;;;;;13.45;6.50;;;8.50;86.80;;;;;;5017192;28;20794;-68
2022/01/25 12:40:26;;;;;;;14.82;6.72;;;8.50;86.80;;;;;;5014322;28;20116;-69
2022/01/25 12:43:13;;;;;;;13.90;6.57;;;8.50;86.90;;;;;;5026850;28;20032;-68
2022/01/25 12:45:45;;;;;;;12.75;6.60;;;8.40;87.20;;;;;;5029877;28;20117;-65
2022/01/25 12:48:16;;;;;;;15.63;6.63;;;8.40;87.30;;;;;;5008775;28;20043;-65
2022/01/25 12:50:47;;;;;;;17.55;7.35;;;8.30;86.90;;;;;;5026778;28;20075;-65
2022/01/25 12:53:16;;;;;;;13.68;6.15;;;8.30;87.40;;;;;;5014490;28;20029;-65
2022/01/25 12:55:46;;;;;;;15.57;7.03;;;8.20;87.70;;;;;;5016525;28;20055;-65
2022/01/25 12:58:12;;;;;;;13.07;6.55;;;8.20;88.10;;;;;;5021809;28;20107;-65
2022/01/25 13:00:45;;;;;;;14.45;6.25;;;8.30;87.90;;;;;;5014573;28;20029;-67
2022/01/25 13:03:26;;;;;;;13.50;6.22;;;8.20;87.80;;;;;;5033667;28;20037;-65
2022/01/25 13:06:14;;;;;;;12.32;7.03;;;8.20;87.40;;;;;;5014043;28;20061;-67
2022/01/25 13:08:52;;;;;;;14.35;6.82;;;8.20;88.30;;;;;;5014909;28;20049;-67
2022/01/25 13:11:29;;;;;;;19.77;7.70;;;8.20;89.00;;;;;;5014842;28;20498;-64
2022/01/25 13:14:18;;;;;;;13.45;6.72;;;8.20;89.20;;;;;;5020616;28;20037;-64
2022/01/25 13:16:50;;;;;;;13.60;6.72;;;8.30;89.00;;;;;;5014532;28;20025;-65
2022/01/25 13:19:20;;;;;;;17.40;7.75;;;8.30;88.80;;;;;;5015824;28;20030;-65
2022/01/25 13:21:54;;;;;;;16.33;7.35;;;8.20;89.10;;;;;;5013705;28;20117;-67
2022/01/25 13:24:24;;;;;;;15.20;6.65;;;8.30;89.20;;;;;;5014950;28;20092;-67
2022/01/25 13:26:58;;;;;;;15.77;7.25;;;8.20;89.30;;;;;;5016766;28;20120;-66
2022/01/25 13:32:19;;;;;;;18.95;7.65;;;8.30;89.40;;;;;;5015904;28;20033;-66
2022/01/25 13:35:18;;;;;;;15.43;7.60;;;8.20;88.80;;;;;;5017926;28;20040;-66
2022/01/25 13:37:46;;;;;;;18.52;8.02;;;8.20;89.00;;;;;;5018015;28;20051;-66
2022/01/25 13:40:13;;;;;;;16.67;6.95;;;8.20;89.00;;;;;;5017112;28;20087;-68
2022/01/25 13:48:08;;;;;;;17.73;7.93;;;8.20;89.10;;;;;;5022277;28;20697;-65
2022/01/25 13:50:36;;;;;;;19.13;8.40;;;8.20;89.00;;;;;;5016364;28;20025;-65
2022/01/25 13:53:02;;;;;;;21.52;9.23;;;8.20;89.00;;;;;;5019278;28;20037;-67
2022/01/25 13:55:28;;;;;;;18.92;8.73;;;8.20;89.10;;;;;;5019401;28;20029;-66
2022/01/25 13:57:54;;;;;;;17.23;7.90;;;8.20;89.30;;;;;;5017418;28;20449;-67
2022/01/25 14:00:20;;;;;;;20.80;9.27;;;8.20;89.00;;;;;;5015377;28;20571;-73
2022/01/25 14:02:56;;;;;;;20.60;9.35;;;8.20;89.00;;;;;;5013674;28;20095;-67
2022/01/25 14:05:22;;;;;;;22.60;10.23;;;8.10;89.10;;;;;;5018153;28;20414;-67
2022/01/25 14:07:53;;;;;;;18.40;9.73;;;8.20;88.90;;;;;;5018150;28;20038;-67
2022/01/25 14:10:24;;;;;;;24.90;9.93;;;8.20;88.70;;;;;;5013742;28;20497;-67
2022/01/25 14:23:57;;;;;;;20.33;8.85;;;8.20;88.40;;;;;;5018745;28;20649;-67
2022/01/25 14:26:29;;;;;;;18.73;8.15;;;8.20;88.60;;;;;;5019430;28;20033;-67
2022/01/25 14:29:06;;;;;;;17.63;7.95;;;8.10;88.80;;;;;;5015469;28;20032;-65
2022/01/25 14:31:42;;;;;;;19.92;8.82;;;8.20;88.90;;;;;;5014693;28;20041;-66
2022/01/25 14:34:11;;;;;;;21.70;9.55;;;8.20;88.60;;;;;;5016461;28;20042;-65
2022/01/25 14:36:39;;;;;;;16.83;8.15;;;8.10;89.30;;;;;;5012650;28;20041;-64
2022/01/25 14:39:06;;;;;;;18.50;8.73;;;8.10;89.30;;;;;;5017855;28;20025;-66
2022/01/25 14:41:34;;;;;;;20.85;9.10;;;8.10;89.20;;;;;;5014623;28;20034;-65
2022/01/25 14:44:22;;;;;;;20.58;9.00;;;8.00;89.50;;;;;;5015180;28;20025;-65
2022/01/25 14:46:51;;;;;;;18.88;8.85;;;8.00;89.80;;;;;;5009801;28;20034;-64
2022/01/25 14:49:22;;;;;;;21.10;9.50;;;7.90;90.20;;;;;;5014505;28;20044;-64
2022/01/25 14:51:55;;;;;;;20.23;8.32;;;7.80;90.60;;;;;;5015323;28;20029;-67
2022/01/25 14:54:23;;;;;;;20.33;9.13;;;7.80;90.90;;;;;;5019912;28;20132;-66
2022/01/25 14:56:55;;;;;;;21.63;8.68;;;7.70;91.20;;;;;;5017197;28;20039;-65
2022/01/25 15:02:05;;;;;;;23.95;10.25;;;7.70;91.20;;;;;;5020010;28;20026;-65
2022/01/25 15:04:37;;;;;;;19.35;8.02;;;7.70;91.00;;;;;;5016594;28;20048;-67
2022/01/25 15:07:08;;;;;;;20.13;8.38;;;7.70;91.20;;;;;;5016344;28;20033;-66
2022/01/25 15:09:35;;;;;;;17.80;8.15;;;7.60;91.40;;;;;;5016441;28;20034;-63